sensor_id;sensor_type;location;lat;lon;timestamp;noise_LAeq;noise_LA_min;noise_LA_max;noise_LA01;noise_LA95
18377;Laerm;9315;52.624;13.544;2023-04-01T00:01:12;56.73;35.32;73.46;;
18377;Laerm;9315;52.624;13.544;2023-04-01T00:03:44;64.24;36.26;81.18;;
18377;Laerm;9315;52.624;13.544;2023-04-01T00:06:17;62.19;37.22;81.58;;
18377;Laerm;9315;52.624;13.544;2023-04-01T00:08:45;40.68;34.61;53.70;;
18377;Laerm;9315;52.624;13.544;2023-04-01T00:11:14;60.05;35.42;76.88;;
18377;Laerm;9315;52.624;13.544;2023-04-01T00:13:42;64.78;35.92;79.38;;
18377;Laerm;9315;52.624;13.544;2023-04-01T00:16:09;58.24;34.18;75.14;;
18377;Laerm;9315;52.624;13.544;2023-04-01T00:18:50;41.30;35.99;52.90;;
18377;Laerm;9315;52.624;13.544;2023-04-01T00:21:18;58.32;34.80;77.92;;
18377;Laerm;9315;52.624;13.544;2023-04-01T00:23:46;40.49;35.53;47.26;;
18377;Laerm;9315;52.624;13.544;2023-04-01T00:26:13;58.85;32.93;78.18;;
18377;Laerm;9315;52.624;13.544;2023-04-01T00:28:41;61.98;36.38;79.57;;
18377;Laerm;9315;52.624;13.544;2023-04-01T00:31:09;40.98;33.71;55.18;;
18377;Laerm;9315;52.624;13.544;2023-04-01T00:33:38;40.80;35.12;49.66;;
18377;Laerm;9315;52.624;13.544;2023-04-01T00:36:16;55.92;35.88;72.39;;
18377;Laerm;9315;52.624;13.544;2023-04-01T00:38:45;40.24;35.73;49.94;;
18377;Laerm;9315;52.624;13.544;2023-04-01T00:41:15;66.05;35.38;84.21;;
18377;Laerm;9315;52.624;13.544;2023-04-01T00:43:47;65.45;35.40;79.87;;
18377;Laerm;9315;52.624;13.544;2023-04-01T00:46:15;41.95;36.77;51.14;;
18377;Laerm;9315;52.624;13.544;2023-04-01T00:48:53;63.00;38.30;80.20;;
18377;Laerm;9315;52.624;13.544;2023-04-01T00:51:27;39.00;35.23;54.54;;
18377;Laerm;9315;52.624;13.544;2023-04-01T00:53:58;59.35;36.24;74.04;;
18377;Laerm;9315;52.624;13.544;2023-04-01T00:56:38;41.54;37.71;53.20;;
18377;Laerm;9315;52.624;13.544;2023-04-01T00:59:14;60.85;36.33;79.05;;
18377;Laerm;9315;52.624;13.544;2023-04-01T01:01:42;62.39;37.61;82.96;;
18377;Laerm;9315;52.624;13.544;2023-04-01T01:04:28;55.00;36.58;71.49;;
18377;Laerm;9315;52.624;13.544;2023-04-01T01:07:36;41.06;36.20;54.92;;
18377;Laerm;9315;52.624;13.544;2023-04-01T01:13:53;57.97;36.30;78.44;;
18377;Laerm;9315;52.624;13.544;2023-04-01T01:16:31;39.74;36.12;51.82;;
18377;Laerm;9315;52.624;13.544;2023-04-01T01:19:37;40.22;35.10;53.23;;
18377;Laerm;9315;52.624;13.544;2023-04-01T01:31:37;60.07;36.64;79.33;;
18377;Laerm;9315;52.624;13.544;2023-04-01T01:37:19;63.24;36.97;78.65;;
18377;Laerm;9315;52.624;13.544;2023-04-01T01:39:59;62.63;36.25;80.63;;
18377;Laerm;9315;52.624;13.544;2023-04-01T01:42:30;59.18;35.73;75.48;;
18377;Laerm;9315;52.624;13.544;2023-04-01T01:44:59;57.44;34.24;73.57;;
18377;Laerm;9315;52.624;13.544;2023-04-01T01:47:28;63.34;36.67;81.01;;
18377;Laerm;9315;52.624;13.544;2023-04-01T01:49:57;66.90;37.49;82.22;;
18377;Laerm;9315;52.624;13.544;2023-04-01T01:52:27;62.10;35.12;79.44;;
18377;Laerm;9315;52.624;13.544;2023-04-01T01:54:57;61.33;34.94;77.63;;
18377;Laerm;9315;52.624;13.544;2023-04-01T01:57:37;61.47;35.89;78.48;;
18377;Laerm;9315;52.624;13.544;2023-04-01T02:00:11;65.89;32.92;82.19;;
18377;Laerm;9315;52.624;13.544;2023-04-01T02:02:45;64.75;37.31;81.61;;
18377;Laerm;9315;52.624;13.544;2023-04-01T02:05:24;66.48;37.31;83.73;;
18377;Laerm;9315;52.624;13.544;2023-04-01T02:08:49;64.14;37.02;81.11;;
18377;Laerm;9315;52.624;13.544;2023-04-01T02:11:07;63.42;36.79;78.79;;
18377;Laerm;9315;52.624;13.544;2023-04-01T02:14:01;62.96;35.08;79.95;;
18377;Laerm;9315;52.624;13.544;2023-04-01T02:17:07;59.35;34.32;77.20;;
18377;Laerm;9315;52.624;13.544;2023-04-01T02:19:44;54.43;33.34;70.27;;
18377;Laerm;9315;52.624;13.544;2023-04-01T02:22:23;66.24;36.99;83.91;;
18377;Laerm;9315;52.624;13.544;2023-04-01T02:24:57;42.97;33.90;57.89;;
18377;Laerm;9315;52.624;13.544;2023-04-01T02:27:25;59.01;36.84;74.90;;
18377;Laerm;9315;52.624;13.544;2023-04-01T02:29:53;65.05;39.55;82.15;;
18377;Laerm;9315;52.624;13.544;2023-04-01T02:32:20;58.74;38.96;77.80;;
18377;Laerm;9315;52.624;13.544;2023-04-01T02:34:48;43.23;37.86;50.24;;
18377;Laerm;9315;52.624;13.544;2023-04-01T02:37:16;63.87;41.30;77.50;;
18377;Laerm;9315;52.624;13.544;2023-04-01T02:39:44;58.91;37.16;76.75;;
18377;Laerm;9315;52.624;13.544;2023-04-01T02:42:11;63.81;37.10;80.20;;
18377;Laerm;9315;52.624;13.544;2023-04-01T02:44:38;64.45;42.04;78.56;;
18377;Laerm;9315;52.624;13.544;2023-04-01T02:47:05;63.51;40.69;74.34;;
18377;Laerm;9315;52.624;13.544;2023-04-01T02:49:32;57.67;37.12;74.40;;
18377;Laerm;9315;52.624;13.544;2023-04-01T02:52:00;62.09;35.53;78.14;;
18377;Laerm;9315;52.624;13.544;2023-04-01T02:54:27;65.76;38.98;78.34;;
18377;Laerm;9315;52.624;13.544;2023-04-01T02:56:54;62.72;35.22;79.18;;
18377;Laerm;9315;52.624;13.544;2023-04-01T02:59:21;64.92;38.10;81.45;;
18377;Laerm;9315;52.624;13.544;2023-04-01T03:01:51;69.38;38.83;84.45;;
18377;Laerm;9315;52.624;13.544;2023-04-01T03:04:18;64.65;36.95;85.23;;
18377;Laerm;9315;52.624;13.544;2023-04-01T03:06:45;64.65;37.13;79.25;;
18377;Laerm;9315;52.624;13.544;2023-04-01T03:09:12;62.75;34.85;81.10;;
18377;Laerm;9315;52.624;13.544;2023-04-01T03:11:39;67.12;41.45;78.28;;
18377;Laerm;9315;52.624;13.544;2023-04-01T03:14:07;64.77;38.68;78.29;;
18377;Laerm;9315;52.624;13.544;2023-04-01T03:16:34;68.06;38.28;81.43;;
18377;Laerm;9315;52.624;13.544;2023-04-01T03:19:02;65.29;39.53;79.28;;
18377;Laerm;9315;52.624;13.544;2023-04-01T03:21:29;69.15;40.22;82.53;;
18377;Laerm;9315;52.624;13.544;2023-04-01T03:23:56;67.74;36.22;81.45;;
18377;Laerm;9315;52.624;13.544;2023-04-01T03:26:24;63.52;33.81;76.45;;
18377;Laerm;9315;52.624;13.544;2023-04-01T03:28:53;65.41;36.49;79.90;;
18377;Laerm;9315;52.624;13.544;2023-04-01T03:31:22;66.17;40.98;78.48;;
18377;Laerm;9315;52.624;13.544;2023-04-01T03:33:50;69.14;39.81;83.09;;
18377;Laerm;9315;52.624;13.544;2023-04-01T03:36:17;65.27;40.85;77.71;;
18377;Laerm;9315;52.624;13.544;2023-04-01T03:38:45;68.85;40.33;80.16;;
18377;Laerm;9315;52.624;13.544;2023-04-01T03:41:17;65.84;40.92;81.22;;
18377;Laerm;9315;52.624;13.544;2023-04-01T03:43:45;65.21;38.47;81.08;;
18377;Laerm;9315;52.624;13.544;2023-04-01T03:46:17;65.87;40.00;79.24;;
18377;Laerm;9315;52.624;13.544;2023-04-01T03:48:45;63.30;40.68;79.73;;
18377;Laerm;9315;52.624;13.544;2023-04-01T03:51:13;67.14;38.03;82.99;;
18377;Laerm;9315;52.624;13.544;2023-04-01T03:53:40;45.26;37.02;57.74;;
18377;Laerm;9315;52.624;13.544;2023-04-01T03:56:08;67.11;42.41;80.48;;
18377;Laerm;9315;52.624;13.544;2023-04-01T03:58:36;61.87;39.27;77.86;;
18377;Laerm;9315;52.624;13.544;2023-04-01T04:01:03;70.20;38.68;86.88;;
18377;Laerm;9315;52.624;13.544;2023-04-01T04:03:39;69.86;40.02;81.64;;
18377;Laerm;9315;52.624;13.544;2023-04-01T04:06:12;66.25;40.65;83.59;;
18377;Laerm;9315;52.624;13.544;2023-04-01T04:08:39;71.10;40.12;81.89;;
18377;Laerm;9315;52.624;13.544;2023-04-01T04:11:07;67.37;42.31;81.98;;
18377;Laerm;9315;52.624;13.544;2023-04-01T04:13:35;70.40;43.49;81.73;;
18377;Laerm;9315;52.624;13.544;2023-04-01T04:16:03;67.68;41.47;83.07;;
18377;Laerm;9315;52.624;13.544;2023-04-01T04:18:31;69.86;42.17;83.65;;
18377;Laerm;9315;52.624;13.544;2023-04-01T04:20:58;69.33;42.08;83.94;;
18377;Laerm;9315;52.624;13.544;2023-04-01T04:23:25;69.61;42.02;84.54;;
18377;Laerm;9315;52.624;13.544;2023-04-01T04:26:06;73.18;41.06;85.56;;
18377;Laerm;9315;52.624;13.544;2023-04-01T04:28:34;71.67;40.83;82.29;;
18377;Laerm;9315;52.624;13.544;2023-04-01T04:31:02;72.63;40.24;86.03;;
18377;Laerm;9315;52.624;13.544;2023-04-01T04:33:32;70.77;43.34;83.90;;
18377;Laerm;9315;52.624;13.544;2023-04-01T04:36:01;69.46;39.40;81.11;;
18377;Laerm;9315;52.624;13.544;2023-04-01T04:38:28;73.23;42.39;84.81;;
18377;Laerm;9315;52.624;13.544;2023-04-01T04:40:56;69.74;41.09;84.35;;
18377;Laerm;9315;52.624;13.544;2023-04-01T04:43:23;68.91;43.70;82.09;;
18377;Laerm;9315;52.624;13.544;2023-04-01T04:45:51;69.87;44.77;82.10;;
18377;Laerm;9315;52.624;13.544;2023-04-01T04:48:18;71.92;45.34;84.53;;
18377;Laerm;9315;52.624;13.544;2023-04-01T04:50:49;71.22;42.35;84.36;;
18377;Laerm;9315;52.624;13.544;2023-04-01T04:53:18;68.92;41.86;85.41;;
18377;Laerm;9315;52.624;13.544;2023-04-01T04:55:49;67.29;42.98;80.16;;
18377;Laerm;9315;52.624;13.544;2023-04-01T04:58:17;67.82;43.56;83.89;;
18377;Laerm;9315;52.624;13.544;2023-04-01T05:00:45;70.53;39.56;82.12;;
18377;Laerm;9315;52.624;13.544;2023-04-01T05:03:14;70.46;39.39;84.23;;
18377;Laerm;9315;52.624;13.544;2023-04-01T05:05:51;69.29;39.06;83.26;;
18377;Laerm;9315;52.624;13.544;2023-04-01T05:08:19;66.13;40.26;81.52;;
18377;Laerm;9315;52.624;13.544;2023-04-01T05:10:46;69.20;40.96;82.26;;
18377;Laerm;9315;52.624;13.544;2023-04-01T05:13:14;69.07;40.95;80.11;;
18377;Laerm;9315;52.624;13.544;2023-04-01T05:15:41;72.36;40.63;83.95;;
18377;Laerm;9315;52.624;13.544;2023-04-01T05:18:08;70.20;38.37;85.72;;
18377;Laerm;9315;52.624;13.544;2023-04-01T05:20:35;70.91;40.22;82.85;;
18377;Laerm;9315;52.624;13.544;2023-04-01T05:23:03;68.53;41.15;81.34;;
18377;Laerm;9315;52.624;13.544;2023-04-01T05:25:30;68.33;39.29;81.89;;
18377;Laerm;9315;52.624;13.544;2023-04-01T05:27:57;70.87;38.66;86.49;;
18377;Laerm;9315;52.624;13.544;2023-04-01T05:30:27;67.99;38.83;82.15;;
18377;Laerm;9315;52.624;13.544;2023-04-01T05:32:54;71.80;38.98;83.96;;
18377;Laerm;9315;52.624;13.544;2023-04-01T05:35:22;70.15;40.51;81.53;;
18377;Laerm;9315;52.624;13.544;2023-04-01T05:37:52;71.56;39.84;85.06;;
18377;Laerm;9315;52.624;13.544;2023-04-01T05:40:19;73.16;46.63;85.06;;
18377;Laerm;9315;52.624;13.544;2023-04-01T05:42:47;71.87;42.93;82.11;;
18377;Laerm;9315;52.624;13.544;2023-04-01T05:45:15;71.46;39.67;83.45;;
18377;Laerm;9315;52.624;13.544;2023-04-01T05:47:42;71.22;46.35;83.18;;
18377;Laerm;9315;52.624;13.544;2023-04-01T05:50:10;68.73;40.31;82.40;;
18377;Laerm;9315;52.624;13.544;2023-04-01T05:52:38;72.16;43.36;84.70;;
18377;Laerm;9315;52.624;13.544;2023-04-01T05:55:06;71.80;38.60;83.30;;
18377;Laerm;9315;52.624;13.544;2023-04-01T05:57:34;70.54;41.83;81.93;;
18377;Laerm;9315;52.624;13.544;2023-04-01T06:00:04;71.54;41.74;85.27;;
18377;Laerm;9315;52.624;13.544;2023-04-01T06:02:32;73.34;47.39;86.72;;
18377;Laerm;9315;52.624;13.544;2023-04-01T06:05:23;69.83;42.39;83.68;;
18377;Laerm;9315;52.624;13.544;2023-04-01T06:08:00;71.30;44.84;83.38;;
18377;Laerm;9315;52.624;13.544;2023-04-01T06:11:23;70.31;40.79;83.59;;
18377;Laerm;9315;52.624;13.544;2023-04-01T06:14:34;72.35;43.08;82.37;;
18377;Laerm;9315;52.624;13.544;2023-04-01T06:26:25;73.45;47.61;83.78;;
18377;Laerm;9315;52.624;13.544;2023-04-01T06:29:39;74.64;43.92;83.83;;
18377;Laerm;9315;52.624;13.544;2023-04-01T06:32:46;72.50;41.80;83.84;;
18377;Laerm;9315;52.624;13.544;2023-04-01T06:36:14;73.28;45.67;84.25;;
18377;Laerm;9315;52.624;13.544;2023-04-01T06:42:53;75.06;42.90;87.03;;
18377;Laerm;9315;52.624;13.544;2023-04-01T06:54:42;74.57;47.51;83.37;;
18377;Laerm;9315;52.624;13.544;2023-04-01T06:57:43;72.72;50.43;83.17;;
18377;Laerm;9315;52.624;13.544;2023-04-01T07:00:37;73.04;45.53;85.67;;
18377;Laerm;9315;52.624;13.544;2023-04-01T07:03:31;72.30;42.49;86.27;;
18377;Laerm;9315;52.624;13.544;2023-04-01T07:06:10;73.35;42.18;83.13;;
18377;Laerm;9315;52.624;13.544;2023-04-01T07:08:42;75.08;43.72;86.95;;
18377;Laerm;9315;52.624;13.544;2023-04-01T07:11:34;74.66;44.67;85.50;;
18377;Laerm;9315;52.624;13.544;2023-04-01T07:14:24;74.69;47.72;84.30;;
18377;Laerm;9315;52.624;13.544;2023-04-01T07:17:12;73.06;45.73;85.76;;
18377;Laerm;9315;52.624;13.544;2023-04-01T07:22:49;73.59;46.02;83.09;;
18377;Laerm;9315;52.624;13.544;2023-04-01T07:25:35;73.87;45.43;85.24;;
18377;Laerm;9315;52.624;13.544;2023-04-01T07:28:16;73.30;43.06;86.64;;
18377;Laerm;9315;52.624;13.544;2023-04-01T07:31:24;75.79;46.30;90.51;;
18377;Laerm;9315;52.624;13.544;2023-04-01T07:38:13;75.97;47.59;84.73;;
18377;Laerm;9315;52.624;13.544;2023-04-01T07:41:23;75.04;45.11;83.77;;
18377;Laerm;9315;52.624;13.544;2023-04-01T07:55:51;74.90;54.27;82.85;;
18377;Laerm;9315;52.624;13.544;2023-04-01T08:04:40;73.70;41.97;85.53;;
18377;Laerm;9315;52.624;13.544;2023-04-01T08:07:28;74.86;48.88;86.79;;
18377;Laerm;9315;52.624;13.544;2023-04-01T08:14:00;74.73;43.83;85.67;;
18377;Laerm;9315;52.624;13.544;2023-04-01T08:17:05;75.53;46.79;83.89;;
18377;Laerm;9315;52.624;13.544;2023-04-01T08:22:53;73.75;48.55;82.89;;
18377;Laerm;9315;52.624;13.544;2023-04-01T08:25:28;75.83;51.07;82.89;;
18377;Laerm;9315;52.624;13.544;2023-04-01T08:32:34;80.07;50.63;101.07;;
18377;Laerm;9315;52.624;13.544;2023-04-01T08:35:07;74.19;49.65;83.11;;
18377;Laerm;9315;52.624;13.544;2023-04-01T08:37:40;73.95;50.33;82.88;;
18377;Laerm;9315;52.624;13.544;2023-04-01T08:56:40;75.35;46.77;83.75;;
18377;Laerm;9315;52.624;13.544;2023-04-01T09:08:40;75.60;45.34;84.45;;
18377;Laerm;9315;52.624;13.544;2023-04-01T09:24:05;76.34;48.16;84.32;;
18377;Laerm;9315;52.624;13.544;2023-04-01T09:54:31;75.92;44.65;83.50;;
18377;Laerm;9315;52.624;13.544;2023-04-01T10:24:55;75.89;49.52;86.40;;
18377;Laerm;9315;52.624;13.544;2023-04-01T10:44:03;76.47;51.98;84.66;;
18377;Laerm;9315;52.624;13.544;2023-04-01T10:50:54;75.06;52.87;83.74;;
18377;Laerm;9315;52.624;13.544;2023-04-01T11:20:44;72.84;49.99;80.66;;
18377;Laerm;9315;52.624;13.544;2023-04-01T11:42:33;72.52;45.51;81.32;;
18377;Laerm;9315;52.624;13.544;2023-04-01T11:55:24;70.21;45.85;79.65;;
18377;Laerm;9315;52.624;13.544;2023-04-01T12:01:53;71.19;47.12;78.70;;
18377;Laerm;9315;52.624;13.544;2023-04-01T12:23:28;70.88;45.09;78.58;;
18377;Laerm;9315;52.624;13.544;2023-04-01T12:36:25;72.14;47.85;80.26;;
18377;Laerm;9315;52.624;13.544;2023-04-01T12:42:59;71.56;49.96;80.63;;
18377;Laerm;9315;52.624;13.544;2023-04-01T12:51:38;72.34;46.77;81.03;;
18377;Laerm;9315;52.624;13.544;2023-04-01T13:12:43;73.06;47.51;81.33;;
18377;Laerm;9315;52.624;13.544;2023-04-01T13:18:53;73.48;48.13;83.10;;
18377;Laerm;9315;52.624;13.544;2023-04-01T13:27:05;73.42;50.18;82.43;;
18377;Laerm;9315;52.624;13.544;2023-04-01T13:33:37;73.02;47.65;82.09;;
18377;Laerm;9315;52.624;13.544;2023-04-01T13:40:45;74.17;47.53;82.77;;
18377;Laerm;9315;52.624;13.544;2023-04-01T13:43:56;74.60;51.69;84.04;;
18377;Laerm;9315;52.624;13.544;2023-04-01T13:52:47;73.86;52.02;82.66;;
18377;Laerm;9315;52.624;13.544;2023-04-01T13:55:53;73.69;53.99;82.85;;
18377;Laerm;9315;52.624;13.544;2023-04-01T14:02:55;73.84;47.90;82.90;;
18377;Laerm;9315;52.624;13.544;2023-04-01T14:21:52;73.53;48.51;82.77;;
18377;Laerm;9315;52.624;13.544;2023-04-01T14:24:52;73.98;50.12;82.29;;
18377;Laerm;9315;52.624;13.544;2023-04-01T14:31:34;73.57;42.51;83.79;;
18377;Laerm;9315;52.624;13.544;2023-04-01T14:50:17;74.40;49.55;84.55;;
18377;Laerm;9315;52.624;13.544;2023-04-01T14:58:17;72.72;45.62;81.27;;
18377;Laerm;9315;52.624;13.544;2023-04-01T15:01:00;71.35;46.34;80.79;;
18377;Laerm;9315;52.624;13.544;2023-04-01T15:04:21;72.43;47.12;81.03;;
18377;Laerm;9315;52.624;13.544;2023-04-01T15:07:52;71.43;45.60;80.54;;
18377;Laerm;9315;52.624;13.544;2023-04-01T15:10:52;73.75;49.79;82.80;;
18377;Laerm;9315;52.624;13.544;2023-04-01T15:13:50;70.23;46.47;79.93;;
18377;Laerm;9315;52.624;13.544;2023-04-01T15:32:04;71.65;50.36;80.33;;
18377;Laerm;9315;52.624;13.544;2023-04-01T15:37:38;71.57;45.60;79.22;;
18377;Laerm;9315;52.624;13.544;2023-04-01T15:40:43;71.70;45.94;80.13;;
18377;Laerm;9315;52.624;13.544;2023-04-01T15:43:47;73.42;50.83;82.37;;
18377;Laerm;9315;52.624;13.544;2023-04-01T15:46:48;71.73;48.78;80.03;;
18377;Laerm;9315;52.624;13.544;2023-04-01T15:49:45;71.43;43.56;82.42;;
18377;Laerm;9315;52.624;13.544;2023-04-01T15:52:43;70.37;45.69;81.17;;
18377;Laerm;9315;52.624;13.544;2023-04-01T16:09:02;71.35;49.78;85.62;;
18377;Laerm;9315;52.624;13.544;2023-04-01T16:11:46;70.02;48.39;77.45;;
18377;Laerm;9315;52.624;13.544;2023-04-01T16:14:43;70.63;45.30;78.75;;
18377;Laerm;9315;52.624;13.544;2023-04-01T16:17:49;70.16;45.12;79.93;;
18377;Laerm;9315;52.624;13.544;2023-04-01T16:23:35;69.69;44.81;80.56;;
18377;Laerm;9315;52.624;13.544;2023-04-01T16:27:00;69.98;46.07;81.63;;
18377;Laerm;9315;52.624;13.544;2023-04-01T16:29:52;70.47;48.01;81.82;;
18377;Laerm;9315;52.624;13.544;2023-04-01T16:35:46;71.23;42.29;80.12;;
18377;Laerm;9315;52.624;13.544;2023-04-01T16:38:36;69.60;44.23;79.26;;
18377;Laerm;9315;52.624;13.544;2023-04-01T16:41:32;69.56;45.14;79.48;;
18377;Laerm;9315;52.624;13.544;2023-04-01T16:44:26;70.89;50.16;81.04;;
18377;Laerm;9315;52.624;13.544;2023-04-01T16:47:06;70.20;44.56;78.49;;
18377;Laerm;9315;52.624;13.544;2023-04-01T16:53:14;70.31;44.78;80.04;;
18377;Laerm;9315;52.624;13.544;2023-04-01T16:56:03;69.16;48.21;77.75;;
18377;Laerm;9315;52.624;13.544;2023-04-01T17:04:48;68.84;44.35;78.68;;
18377;Laerm;9315;52.624;13.544;2023-04-01T17:10:46;70.43;48.74;81.11;;
18377;Laerm;9315;52.624;13.544;2023-04-01T17:13:41;69.38;45.85;80.39;;
18377;Laerm;9315;52.624;13.544;2023-04-01T17:16:41;68.98;48.06;78.52;;
18377;Laerm;9315;52.624;13.544;2023-04-01T17:19:46;67.97;42.44;79.77;;
18377;Laerm;9315;52.624;13.544;2023-04-01T17:22:49;70.42;42.53;80.12;;
18377;Laerm;9315;52.624;13.544;2023-04-01T17:37:27;70.68;45.10;80.33;;
18377;Laerm;9315;52.624;13.544;2023-04-01T17:49:39;71.20;43.35;83.06;;
18377;Laerm;9315;52.624;13.544;2023-04-01T17:53:07;70.21;43.80;82.48;;
18377;Laerm;9315;52.624;13.544;2023-04-01T17:56:04;72.39;45.70;82.62;;
18377;Laerm;9315;52.624;13.544;2023-04-01T18:02:03;73.03;43.56;82.99;;
18377;Laerm;9315;52.624;13.544;2023-04-01T18:09:09;71.58;45.90;83.58;;
18377;Laerm;9315;52.624;13.544;2023-04-01T18:15:07;71.31;41.69;82.56;;
18377;Laerm;9315;52.624;13.544;2023-04-01T18:17:58;70.88;40.69;83.62;;
18377;Laerm;9315;52.624;13.544;2023-04-01T18:20:52;71.63;44.80;82.19;;
18377;Laerm;9315;52.624;13.544;2023-04-01T18:23:53;70.56;44.16;81.98;;
18377;Laerm;9315;52.624;13.544;2023-04-01T18:26:34;73.10;46.36;85.05;;
18377;Laerm;9315;52.624;13.544;2023-04-01T18:31:51;70.81;41.84;83.01;;
18377;Laerm;9315;52.624;13.544;2023-04-01T18:35:28;68.98;42.12;88.39;;
18377;Laerm;9315;52.624;13.544;2023-04-01T18:38:36;73.15;43.39;82.40;;
18377;Laerm;9315;52.624;13.544;2023-04-01T18:41:53;72.67;42.74;85.39;;
18377;Laerm;9315;52.624;13.544;2023-04-01T18:44:56;68.62;41.43;82.38;;
18377;Laerm;9315;52.624;13.544;2023-04-01T18:50:58;72.32;45.30;82.99;;
18377;Laerm;9315;52.624;13.544;2023-04-01T18:53:50;71.34;41.37;85.86;;
18377;Laerm;9315;52.624;13.544;2023-04-01T18:56:32;72.40;42.75;84.40;;
18377;Laerm;9315;52.624;13.544;2023-04-01T18:59:23;69.61;44.01;83.24;;
18377;Laerm;9315;52.624;13.544;2023-04-01T19:02:29;70.19;42.27;83.03;;
18377;Laerm;9315;52.624;13.544;2023-04-01T19:07:47;72.33;45.77;83.20;;
18377;Laerm;9315;52.624;13.544;2023-04-01T19:13:44;72.82;43.46;85.33;;
18377;Laerm;9315;52.624;13.544;2023-04-01T19:17:32;71.68;42.48;86.34;;
18377;Laerm;9315;52.624;13.544;2023-04-01T19:20:17;69.85;41.39;83.33;;
18377;Laerm;9315;52.624;13.544;2023-04-01T19:25:47;71.93;46.22;82.88;;
18377;Laerm;9315;52.624;13.544;2023-04-01T19:28:46;71.36;43.84;83.80;;
18377;Laerm;9315;52.624;13.544;2023-04-01T19:35:29;71.13;42.44;83.30;;
18377;Laerm;9315;52.624;13.544;2023-04-01T19:44:41;70.03;38.18;83.33;;
18377;Laerm;9315;52.624;13.544;2023-04-01T19:51:03;69.42;41.57;82.83;;
18377;Laerm;9315;52.624;13.544;2023-04-01T19:57:44;66.20;39.85;81.53;;
18377;Laerm;9315;52.624;13.544;2023-04-01T20:03:48;70.52;43.50;83.23;;
18377;Laerm;9315;52.624;13.544;2023-04-01T20:06:55;72.43;43.62;85.82;;
18377;Laerm;9315;52.624;13.544;2023-04-01T20:10:08;70.68;41.24;82.48;;
18377;Laerm;9315;52.624;13.544;2023-04-01T20:16:06;69.39;39.05;82.02;;
18377;Laerm;9315;52.624;13.544;2023-04-01T20:19:00;84.24;40.52;111.64;;
18377;Laerm;9315;52.624;13.544;2023-04-01T20:21:47;69.58;43.62;83.79;;
18377;Laerm;9315;52.624;13.544;2023-04-01T20:26:50;66.65;38.92;81.71;;
18377;Laerm;9315;52.624;13.544;2023-04-01T21:08:31;67.13;36.81;81.74;;
18377;Laerm;9315;52.624;13.544;2023-04-01T21:12:03;67.06;37.33;79.85;;
18377;Laerm;9315;52.624;13.544;2023-04-01T21:14:56;65.69;37.27;81.28;;
18377;Laerm;9315;52.624;13.544;2023-04-01T21:26:52;82.19;38.99;109.58;;
18377;Laerm;9315;52.624;13.544;2023-04-01T21:32:58;62.75;36.50;79.58;;
18377;Laerm;9315;52.624;13.544;2023-04-01T21:39:47;63.65;35.26;79.59;;
18377;Laerm;9315;52.624;13.544;2023-04-01T21:42:53;64.97;34.23;78.98;;
18377;Laerm;9315;52.624;13.544;2023-04-01T21:46:32;63.79;36.01;82.97;;
18377;Laerm;9315;52.624;13.544;2023-04-01T22:02:41;64.21;37.72;82.98;;
18377;Laerm;9315;52.624;13.544;2023-04-01T22:05:34;61.13;37.39;76.69;;
18377;Laerm;9315;52.624;13.544;2023-04-01T22:17:28;63.61;39.39;83.45;;
18377;Laerm;9315;52.624;13.544;2023-04-01T22:20:33;65.33;38.16;81.83;;
18377;Laerm;9315;52.624;13.544;2023-04-01T22:23:24;59.90;34.69;78.00;;
18377;Laerm;9315;52.624;13.544;2023-04-01T22:26:49;61.02;35.71;80.27;;
18377;Laerm;9315;52.624;13.544;2023-04-01T22:32:32;59.36;36.37;75.51;;
18377;Laerm;9315;52.624;13.544;2023-04-01T22:39:36;65.12;39.32;83.04;;
18377;Laerm;9315;52.624;13.544;2023-04-01T22:42:44;63.06;36.77;78.64;;
18377;Laerm;9315;52.624;13.544;2023-04-01T22:51:12;41.33;34.23;59.74;;
18377;Laerm;9315;52.624;13.544;2023-04-01T22:54:08;63.82;36.47;81.58;;
18377;Laerm;9315;52.624;13.544;2023-04-01T22:56:57;56.07;35.81;70.29;;
18377;Laerm;9315;52.624;13.544;2023-04-01T22:59:42;58.21;37.17;75.79;;
18377;Laerm;9315;52.624;13.544;2023-04-01T23:02:30;59.47;39.37;77.55;;
18377;Laerm;9315;52.624;13.544;2023-04-01T23:05:05;62.68;36.13;76.02;;
18377;Laerm;9315;52.624;13.544;2023-04-01T23:10:56;60.53;36.08;80.02;;
18377;Laerm;9315;52.624;13.544;2023-04-01T23:13:49;59.73;36.48;78.86;;
18377;Laerm;9315;52.624;13.544;2023-04-01T23:16:37;62.34;34.08;78.13;;
18377;Laerm;9315;52.624;13.544;2023-04-01T23:19:24;47.47;34.70;68.57;;
18377;Laerm;9315;52.624;13.544;2023-04-01T23:28:46;60.64;33.96;75.10;;
18377;Laerm;9315;52.624;13.544;2023-04-01T23:31:42;61.62;33.96;79.14;;
18377;Laerm;9315;52.624;13.544;2023-04-01T23:36:46;60.13;35.19;77.35;;
18377;Laerm;9315;52.624;13.544;2023-04-01T23:39:40;59.37;35.90;75.72;;
18377;Laerm;9315;52.624;13.544;2023-04-01T23:42:27;45.70;36.31;66.41;;
18377;Laerm;9315;52.624;13.544;2023-04-01T23:45:17;53.64;37.49;68.74;;
18377;Laerm;9315;52.624;13.544;2023-04-01T23:47:48;42.59;34.40;56.43;;
18377;Laerm;9315;52.624;13.544;2023-04-01T23:50:24;55.84;33.84;73.17;;
18377;Laerm;9315;52.624;13.544;2023-04-01T23:53:23;57.43;34.67;75.38;;
18377;Laerm;9315;52.624;13.544;2023-04-01T23:55:55;55.88;35.53;74.90;;
18377;Laerm;9315;52.624;13.544;2023-04-01T23:58:27;62.25;35.69;82.00;;
